createdAt,value
2019-03-17T00:00:39.516Z,6.30
2019-03-17T00:04:17.929Z,6.30
2019-03-17T00:04:30.439Z,6.30
2019-03-17T00:05:22.235Z,6.30
2019-03-17T00:06:31.218Z,6.30
2019-03-17T00:07:53.288Z,6.30
2019-03-17T00:08:55.322Z,6.30
2019-03-17T00:10:02.094Z,6.30
2019-03-17T00:11:08.359Z,6.30
2019-03-17T00:12:13.773Z,6.30
2019-03-17T00:13:19.438Z,6.30
2019-03-17T00:14:23.721Z,6.30
2019-03-17T00:15:38.464Z,6.30
2019-03-17T00:16:42.689Z,6.40
2019-03-17T00:17:53.758Z,6.40
2019-03-17T00:18:58.631Z,6.40
2019-03-17T00:20:04.567Z,6.40
2019-03-17T00:21:14.732Z,6.40
2019-03-17T00:22:32.469Z,6.40
2019-03-17T00:23:33.021Z,6.40
2019-03-17T00:24:35.325Z,6.40
2019-03-17T00:25:46.736Z,6.40
2019-03-17T00:26:57.956Z,6.40
2019-03-17T00:29:33.291Z,6.40
2019-03-17T00:30:58.549Z,6.40
2019-03-17T00:32:10.355Z,6.40
2019-03-17T00:33:07.287Z,6.40
2019-03-17T00:34:12.569Z,6.40
2019-03-17T00:35:19.581Z,6.40
2019-03-17T00:36:33.147Z,6.40
2019-03-17T00:37:36.198Z,6.40
2019-03-17T00:38:52.969Z,6.40
2019-03-17T00:40:11.277Z,6.40
2019-03-17T00:41:25.346Z,6.40
2019-03-17T00:42:26.071Z,6.40
2019-03-17T00:43:34.530Z,6.40
2019-03-17T00:44:43.790Z,6.40
2019-03-17T00:45:51.218Z,6.40
2019-03-17T00:47:01.031Z,6.40
2019-03-17T00:48:03.392Z,6.40
2019-03-17T00:49:07.737Z,6.40
2019-03-17T00:50:18.725Z,6.40
2019-03-17T00:51:23.873Z,6.40
2019-03-17T00:52:36.706Z,6.40
2019-03-17T00:53:59.005Z,6.40
2019-03-17T00:55:07.962Z,6.40
2019-03-17T00:56:17.296Z,6.40
2019-03-17T00:57:46.491Z,6.40
2019-03-17T00:58:49.070Z,6.40
2019-03-17T00:59:58.547Z,6.40
2019-03-17T01:00:53.709Z,6.30
2019-03-17T01:02:04.941Z,6.40
2019-03-17T01:05:00.544Z,6.30
2019-03-17T01:06:16.120Z,6.30
2019-03-17T01:07:24.570Z,6.30
2019-03-17T01:08:37.097Z,6.30
2019-03-17T01:09:43.671Z,6.30
2019-03-17T01:10:48.093Z,6.30
2019-03-17T01:11:53.961Z,6.30
2019-03-17T01:13:04.270Z,6.30
2019-03-17T01:14:13.915Z,6.30
2019-03-17T01:15:26.289Z,6.30
2019-03-17T01:16:30.576Z,6.20
2019-03-17T01:17:44.075Z,6.20
2019-03-17T01:19:45.412Z,6.20
2019-03-17T01:20:07.947Z,6.20
2019-03-17T01:21:13.957Z,6.30
2019-03-17T01:22:29.320Z,6.20
2019-03-17T01:23:28.197Z,6.20
2019-03-17T01:24:32.393Z,6.20
2019-03-17T01:25:52.228Z,6.20
2019-03-17T01:26:44.868Z,6.20
2019-03-17T01:27:51.418Z,6.20
2019-03-17T01:29:03.145Z,6.20
2019-03-17T01:30:06.581Z,6.20
2019-03-17T01:31:10.903Z,6.20
2019-03-17T01:32:31.746Z,6.20
2019-03-17T01:33:39.158Z,6.20
2019-03-17T01:36:17.840Z,6.20
2019-03-17T01:37:27.728Z,6.20
2019-03-17T01:38:33.156Z,6.20
2019-03-17T01:39:37.257Z,6.20
2019-03-17T01:40:41.527Z,6.20
2019-03-17T01:41:49.987Z,6.20
2019-03-17T01:42:57.161Z,6.20
2019-03-17T01:44:01.334Z,6.20
2019-03-17T01:45:07.595Z,6.20
2019-03-17T01:46:20.268Z,6.20
2019-03-17T01:47:28.686Z,6.20
2019-03-17T01:48:35.695Z,6.20
2019-03-17T01:49:44.268Z,6.30
2019-03-17T01:50:48.408Z,6.20
2019-03-17T01:51:52.552Z,6.20
2019-03-17T01:52:57.104Z,6.20
2019-03-17T01:54:01.267Z,6.20
2019-03-17T01:55:08.144Z,6.20
2019-03-17T01:56:14.431Z,6.20
2019-03-17T01:57:21.510Z,6.30
2019-03-17T01:58:29.936Z,6.20
2019-03-17T01:59:35.724Z,6.20
2019-03-17T02:00:39.867Z,6.20
2019-03-17T02:01:44.060Z,6.20
2019-03-17T02:02:55.468Z,6.20
2019-03-17T02:03:59.665Z,6.20
2019-03-17T02:05:05.668Z,6.20
2019-03-17T02:06:12.034Z,6.20
2019-03-17T02:07:16.317Z,6.20
2019-03-17T02:08:20.618Z,6.20
2019-03-17T02:09:26.516Z,6.20
2019-03-17T02:10:33.880Z,6.20
2019-03-17T02:11:38.635Z,6.20
2019-03-17T02:12:48.113Z,6.20
2019-03-17T02:13:51.894Z,6.20
2019-03-17T02:14:56.160Z,6.20
2019-03-17T02:16:00.512Z,6.30
2019-03-17T02:17:04.824Z,6.20
2019-03-17T02:18:09.123Z,6.20
2019-03-17T02:19:13.328Z,6.20
2019-03-17T02:20:17.580Z,6.20
2019-03-17T02:21:22.938Z,6.20
2019-03-17T02:22:31.369Z,6.30
2019-03-17T02:23:35.682Z,6.20
2019-03-17T02:24:41.138Z,6.20
2019-03-17T02:25:49.547Z,6.30
2019-03-17T02:26:52.390Z,6.30
2019-03-17T02:27:58.205Z,6.30
2019-03-17T02:29:03.885Z,6.30
2019-03-17T02:30:13.458Z,6.30
2019-03-17T02:31:20.624Z,6.30
2019-03-17T02:32:24.882Z,6.20
2019-03-17T02:33:29.147Z,6.30
2019-03-17T02:34:34.937Z,6.30
2019-03-17T02:35:40.795Z,6.20
2019-03-17T02:36:45.102Z,6.20
2019-03-17T02:37:49.391Z,6.30
2019-03-17T02:38:53.803Z,6.30
2019-03-17T02:39:58.268Z,6.30
2019-03-17T02:41:09.356Z,6.30
2019-03-17T02:42:13.586Z,6.30
2019-03-17T02:43:20.042Z,6.30
2019-03-17T02:44:24.279Z,6.30
2019-03-17T02:45:31.357Z,6.30
2019-03-17T02:46:39.636Z,6.30
2019-03-17T02:47:45.716Z,6.30
2019-03-17T02:48:50.115Z,6.30
2019-03-17T02:49:54.393Z,6.30
2019-03-17T02:50:58.682Z,6.30
2019-03-17T02:52:04.494Z,6.30
2019-03-17T02:53:08.788Z,6.30
2019-03-17T02:54:14.027Z,6.30
2019-03-17T02:55:18.371Z,6.30
2019-03-17T02:56:22.579Z,6.30
2019-03-17T02:57:26.779Z,6.40
2019-03-17T02:58:32.389Z,6.40
2019-03-17T02:59:36.451Z,6.40
2019-03-17T03:00:44.214Z,6.40
2019-03-17T03:01:48.421Z,6.40
2019-03-17T03:02:52.510Z,6.40
2019-03-17T03:03:56.718Z,6.40
2019-03-17T03:05:00.870Z,6.40
2019-03-17T03:06:05.172Z,6.40
2019-03-17T03:07:09.335Z,6.40
2019-03-17T03:08:15.131Z,6.40
2019-03-17T03:09:19.239Z,6.40
2019-03-17T03:10:23.944Z,6.40
2019-03-17T03:11:31.266Z,6.40
2019-03-17T03:12:36.130Z,6.40
2019-03-17T03:13:42.605Z,6.40
2019-03-17T03:14:47.476Z,6.40
2019-03-17T03:15:59.034Z,6.40
2019-03-17T03:17:03.266Z,6.40
2019-03-17T03:18:07.493Z,6.40
2019-03-17T03:19:11.573Z,6.40
2019-03-17T03:20:16.821Z,6.40
2019-03-17T03:21:20.967Z,6.40
2019-03-17T03:22:25.050Z,6.40
2019-03-17T03:23:29.245Z,6.40
2019-03-17T03:24:33.318Z,6.40
2019-03-17T03:25:38.586Z,6.40
2019-03-17T03:26:42.741Z,6.50
2019-03-17T03:27:46.801Z,6.50
2019-03-17T03:28:50.996Z,6.40
2019-03-17T03:29:55.065Z,6.50
2019-03-17T03:30:59.308Z,6.40
2019-03-17T03:32:04.945Z,6.50
2019-03-17T03:33:09.037Z,6.50
2019-03-17T03:34:13.132Z,6.50
2019-03-17T03:35:17.204Z,6.50
2019-03-17T03:36:21.286Z,6.50
2019-03-17T03:37:25.491Z,6.50
2019-03-17T03:38:29.572Z,6.50
2019-03-17T03:39:33.676Z,6.50
2019-03-17T03:40:39.290Z,6.50
2019-03-17T03:41:45.012Z,6.50
2019-03-17T03:42:49.208Z,6.50
2019-03-17T03:43:53.390Z,6.50
2019-03-17T03:44:57.447Z,6.50
2019-03-17T03:46:01.525Z,6.50
2019-03-17T03:47:07.142Z,6.50
2019-03-17T03:48:11.867Z,6.50
2019-03-17T03:49:17.309Z,6.50
2019-03-17T03:50:21.456Z,6.50
2019-03-17T03:51:25.529Z,6.50
2019-03-17T03:52:29.615Z,6.50
2019-03-17T03:53:33.711Z,6.50
2019-03-17T03:54:37.881Z,6.50
2019-03-17T03:55:42.533Z,6.50
2019-03-17T03:56:46.677Z,6.50
2019-03-17T03:57:50.813Z,6.50
2019-03-17T03:58:55.984Z,6.50
2019-03-17T04:00:00.215Z,6.60
2019-03-17T04:01:04.800Z,6.50
2019-03-17T04:02:09.476Z,6.50
2019-03-17T04:03:14.239Z,6.60
2019-03-17T04:04:18.342Z,6.60
2019-03-17T04:05:22.626Z,6.50
2019-03-17T04:06:27.319Z,6.50
2019-03-17T04:07:32.149Z,6.60
2019-03-17T04:08:36.302Z,6.60
2019-03-17T04:09:40.362Z,6.60
2019-03-17T04:10:44.539Z,6.60
2019-03-17T04:11:48.593Z,6.60
2019-03-17T04:12:52.681Z,6.60
2019-03-17T04:13:56.893Z,6.60
2019-03-17T04:15:01.777Z,6.60
2019-03-17T04:16:06.035Z,6.60
2019-03-17T04:17:10.229Z,6.60
2019-03-17T04:18:14.441Z,6.60
2019-03-17T04:19:20.139Z,6.60
2019-03-17T04:20:24.241Z,6.60
2019-03-17T04:21:28.376Z,6.60
2019-03-17T04:22:32.516Z,6.60
2019-03-17T04:23:40.388Z,6.70
2019-03-17T04:24:45.198Z,6.60
2019-03-17T04:25:49.451Z,6.70
2019-03-17T04:26:55.075Z,6.70
2019-03-17T04:27:59.236Z,6.70
2019-03-17T04:29:03.396Z,6.70
2019-03-17T04:30:12.715Z,6.70
2019-03-17T04:31:16.810Z,6.70
2019-03-17T04:32:25.622Z,6.70
2019-03-17T04:33:29.789Z,6.80
2019-03-17T04:34:34.764Z,6.80
2019-03-17T04:35:38.906Z,6.80
2019-03-17T04:36:43.067Z,6.80
2019-03-17T04:37:47.196Z,6.80
2019-03-17T04:38:51.424Z,6.80
2019-03-17T04:39:55.731Z,6.80
2019-03-17T04:40:59.927Z,6.80
2019-03-17T04:42:04.244Z,6.80
2019-03-17T04:43:09.599Z,6.80
2019-03-17T04:44:20.722Z,6.80
2019-03-17T04:45:20.439Z,6.90
2019-03-17T04:46:27.085Z,6.90
2019-03-17T04:47:37.256Z,6.90
2019-03-17T04:48:43.062Z,6.90
2019-03-17T04:49:47.702Z,6.90
2019-03-17T04:50:56.546Z,6.90
2019-03-17T04:51:59.803Z,6.90
2019-03-17T04:53:05.354Z,6.90
2019-03-17T04:54:19.098Z,6.90
2019-03-17T04:55:28.106Z,6.90
2019-03-17T04:56:36.562Z,6.90
2019-03-17T04:57:51.107Z,6.90
2019-03-17T04:59:00.328Z,7.00
2019-03-17T05:00:09.610Z,7.00
2019-03-17T05:01:14.417Z,7.00
2019-03-17T05:02:21.205Z,7.00
2019-03-17T05:03:25.337Z,7.00
2019-03-17T05:04:30.723Z,7.00
2019-03-17T05:05:36.116Z,7.00
2019-03-17T05:06:51.986Z,7.00
2019-03-17T05:07:50.965Z,7.00
2019-03-17T05:08:55.207Z,7.00
2019-03-17T05:10:03.719Z,7.00
2019-03-17T05:11:13.556Z,7.00
2019-03-17T05:12:16.907Z,7.10
2019-03-17T05:13:23.190Z,7.10
2019-03-17T05:14:31.873Z,7.10
2019-03-17T05:15:38.034Z,7.10
2019-03-17T05:16:51.762Z,7.10
2019-03-17T05:17:57.433Z,7.10
2019-03-17T05:20:26.489Z,7.20
2019-03-17T05:21:32.064Z,7.20
2019-03-17T05:22:37.358Z,7.20
2019-03-17T05:23:48.971Z,7.20
2019-03-17T05:25:02.584Z,7.20
2019-03-17T05:26:10.359Z,7.20
2019-03-17T05:27:16.708Z,7.30
2019-03-17T05:28:23.685Z,7.30
2019-03-17T05:29:30.475Z,7.30
2019-03-17T05:30:35.601Z,7.30
2019-03-17T05:31:46.266Z,7.30
2019-03-17T05:32:52.119Z,7.30
2019-03-17T05:34:05.008Z,7.40
2019-03-17T05:35:18.271Z,7.40
2019-03-17T05:36:23.904Z,7.40
2019-03-17T05:37:38.893Z,7.40
2019-03-17T05:38:45.303Z,7.50
2019-03-17T05:39:55.354Z,7.50
2019-03-17T05:40:59.717Z,7.50
2019-03-17T05:42:05.139Z,7.50
2019-03-17T05:43:18.100Z,7.50
2019-03-17T05:44:24.784Z,7.60
2019-03-17T05:45:33.054Z,7.60
2019-03-17T05:46:43.418Z,7.60
2019-03-17T05:47:58.847Z,7.60
2019-03-17T05:49:09.497Z,7.60
2019-03-17T05:50:20.834Z,7.70
2019-03-17T05:51:22.932Z,7.60
2019-03-17T05:52:40.660Z,7.60
2019-03-17T05:55:18.612Z,7.70
2019-03-17T05:56:33.203Z,7.70
2019-03-17T05:57:44.703Z,7.80
2019-03-17T05:58:55.956Z,7.80
2019-03-17T06:00:04.201Z,7.80
2019-03-17T06:01:03.846Z,7.80
2019-03-17T06:02:13.944Z,7.80
2019-03-17T06:03:25.063Z,7.80
2019-03-17T06:04:39.104Z,7.80
2019-03-17T06:05:56.835Z,7.90
2019-03-17T06:07:03.378Z,7.80
2019-03-17T06:08:21.036Z,7.80
2019-03-17T06:09:29.914Z,7.90
2019-03-17T06:10:40.096Z,7.90
2019-03-17T06:12:07.343Z,7.90
2019-03-17T06:13:04.297Z,7.90
2019-03-17T06:17:17.207Z,8.00
2019-03-17T06:17:36.447Z,8.00
2019-03-17T06:20:07.308Z,8.10
2019-03-17T06:20:56.857Z,8.10
2019-03-17T06:22:06.506Z,8.10
2019-03-17T06:23:18.973Z,8.10
2019-03-17T06:24:31.392Z,8.20
2019-03-17T06:25:44.454Z,8.20
2019-03-17T06:28:22.712Z,8.20
2019-03-17T06:29:31.598Z,8.20
2019-03-17T06:30:49.169Z,8.30
2019-03-17T06:32:14.359Z,8.30
2019-03-17T06:34:18.221Z,8.30
2019-03-17T06:34:57.432Z,8.30
2019-03-17T06:36:06.605Z,8.30
2019-03-17T06:38:36.418Z,8.40
2019-03-17T06:39:46.544Z,8.40
2019-03-17T06:41:11.036Z,8.40
2019-03-17T06:42:26.415Z,8.40
2019-03-17T06:43:32.308Z,8.50
2019-03-17T06:44:56.700Z,8.50
2019-03-17T06:46:05.532Z,8.50
2019-03-17T06:47:34.183Z,8.50
2019-03-17T06:49:45.922Z,8.60
2019-03-17T06:51:07.331Z,8.70
2019-03-17T06:52:53.367Z,8.70
2019-03-17T06:53:19.277Z,8.70
2019-03-17T06:54:42.421Z,8.70
2019-03-17T06:57:34.618Z,8.80
2019-03-17T06:58:25.290Z,8.90
2019-03-17T07:00:12.093Z,8.90
2019-03-17T07:01:54.832Z,8.90
2019-03-17T07:04:15.928Z,9.00
2019-03-17T07:04:59.957Z,9.00
2019-03-17T07:07:14.709Z,9.10
2019-03-17T07:07:19.203Z,9.10
2019-03-17T07:08:40.055Z,9.10
2019-03-17T07:09:36.807Z,9.20
2019-03-17T07:13:51.361Z,9.30
2019-03-17T07:15:25.001Z,9.30
2019-03-17T07:16:32.939Z,9.40
2019-03-17T07:17:45.991Z,9.40
2019-03-17T07:19:02.603Z,9.40
2019-03-17T07:20:08.409Z,9.50
2019-03-17T07:21:35.359Z,9.50
2019-03-17T07:22:35.084Z,9.50
2019-03-17T07:23:46.741Z,9.50
2019-03-17T07:26:24.107Z,9.60
2019-03-17T07:28:30.302Z,9.70
2019-03-17T07:29:15.116Z,9.70
2019-03-17T07:31:35.792Z,9.80
2019-03-17T07:33:32.385Z,9.90
2019-03-17T07:34:05.969Z,9.90
2019-03-17T07:35:20.913Z,9.90
2019-03-17T07:39:12.891Z,10.00
2019-03-17T07:40:19.307Z,10.00
2019-03-17T07:43:13.398Z,10.10
2019-03-17T07:44:21.283Z,10.10
2019-03-17T07:45:47.934Z,10.20
2019-03-17T07:48:01.361Z,10.30
2019-03-17T07:49:16.975Z,10.30
2019-03-17T07:51:31.368Z,10.40
2019-03-17T07:52:05.580Z,10.30
2019-03-17T07:52:56.995Z,10.40
2019-03-17T07:53:59.193Z,10.40
2019-03-17T07:56:35.787Z,10.50
2019-03-17T07:58:07.883Z,10.50
2019-03-17T07:59:02.383Z,10.60
2019-03-17T08:01:39.303Z,10.60
2019-03-17T08:02:48.385Z,10.60
2019-03-17T08:04:11.625Z,10.70
2019-03-17T08:05:20.847Z,10.70
2019-03-17T08:06:32.939Z,10.70
2019-03-17T08:07:48.305Z,10.80
2019-03-17T08:08:57.745Z,10.80
2019-03-17T08:10:06.673Z,10.90
2019-03-17T08:11:23.167Z,10.90
2019-03-17T08:12:34.176Z,11.00
2019-03-17T08:13:39.650Z,11.10
2019-03-17T08:14:45.928Z,11.10
2019-03-17T08:16:40.160Z,11.20
2019-03-17T08:17:10.206Z,11.30
2019-03-17T08:18:22.813Z,11.30
2019-03-17T08:19:32.187Z,11.40
2019-03-17T08:20:43.612Z,11.40
2019-03-17T08:23:26.597Z,11.50
2019-03-17T08:24:27.660Z,11.50
2019-03-17T08:25:33.353Z,11.50
2019-03-17T08:27:39.941Z,11.50
2019-03-17T08:27:56.433Z,11.50
2019-03-17T08:29:05.751Z,11.50
2019-03-17T08:30:18.457Z,11.60
2019-03-17T08:31:33.377Z,11.50
2019-03-17T08:32:45.826Z,11.50
2019-03-17T08:33:55.350Z,11.60
2019-03-17T08:35:08.192Z,11.60
2019-03-17T08:36:41.161Z,11.60
2019-03-17T08:39:15.868Z,11.70
2019-03-17T08:40:28.552Z,11.70
2019-03-17T08:41:57.642Z,11.80
2019-03-17T08:43:13.875Z,11.80
2019-03-17T08:46:22.392Z,11.90
2019-03-17T08:46:43.148Z,11.90
2019-03-17T08:47:57.985Z,11.90
2019-03-17T08:50:39.626Z,12.00
2019-03-17T08:51:48.493Z,12.00
2019-03-17T08:54:25.628Z,12.10
2019-03-17T08:54:26.623Z,12.10
2019-03-17T08:55:33.036Z,12.10
2019-03-17T08:57:28.980Z,12.20
2019-03-17T08:57:50.587Z,12.20
2019-03-17T08:59:04.856Z,12.20
2019-03-17T09:00:25.063Z,12.20
2019-03-17T09:01:31.796Z,12.30
2019-03-17T09:02:41.813Z,12.30
2019-03-17T09:03:48.940Z,12.40
2019-03-17T09:04:55.627Z,12.40
2019-03-17T09:06:02.494Z,12.40
2019-03-17T09:07:07.651Z,12.40
2019-03-17T09:08:18.931Z,12.40
2019-03-17T09:09:23.861Z,12.50
2019-03-17T09:10:31.227Z,12.50
2019-03-17T09:11:39.547Z,12.50
2019-03-17T09:12:47.736Z,12.50
2019-03-17T09:13:53.745Z,12.60
2019-03-17T09:15:02.800Z,12.60
2019-03-17T09:16:13.435Z,12.70
2019-03-17T09:17:23.408Z,12.70
2019-03-17T09:18:38.902Z,12.70
2019-03-17T09:19:41.436Z,12.70
2019-03-17T09:20:52.051Z,12.70
2019-03-17T09:21:58.045Z,12.70
2019-03-17T09:24:22.423Z,12.70
2019-03-17T09:25:38.905Z,12.70
2019-03-17T09:26:46.228Z,12.70
2019-03-17T09:28:01.261Z,12.80
2019-03-17T09:29:09.658Z,12.80
2019-03-17T09:30:22.305Z,12.90
2019-03-17T09:31:37.663Z,12.90
2019-03-17T09:32:36.705Z,13.00
2019-03-17T09:33:41.129Z,13.10
2019-03-17T09:34:53.171Z,13.10
2019-03-17T09:39:29.386Z,13.20
2019-03-17T09:39:57.481Z,13.30
2019-03-17T09:41:03.018Z,13.30
2019-03-17T09:42:16.281Z,13.40
2019-03-17T09:43:38.806Z,13.40
2019-03-17T09:44:43.811Z,13.50
2019-03-17T09:47:29.651Z,13.60
2019-03-17T09:48:41.410Z,13.60
2019-03-17T09:49:59.944Z,13.60
2019-03-17T09:50:58.662Z,13.60
2019-03-17T09:52:08.454Z,13.60
2019-03-17T09:53:29.878Z,13.60
2019-03-17T09:54:35.460Z,13.50
2019-03-17T09:55:42.913Z,13.50
2019-03-17T09:56:54.120Z,13.50
2019-03-17T09:58:00.747Z,13.50
2019-03-17T09:59:09.563Z,13.50
2019-03-17T10:00:39.319Z,13.60
2019-03-17T10:01:49.258Z,13.60
2019-03-17T10:03:00.094Z,13.80
2019-03-17T10:04:16.008Z,13.80
2019-03-17T10:05:34.058Z,13.90
2019-03-17T10:06:38.368Z,13.90
2019-03-17T10:07:47.947Z,13.90
2019-03-17T10:10:29.209Z,13.90
2019-03-17T10:11:44.975Z,13.90
2019-03-17T10:12:56.043Z,13.80
2019-03-17T10:14:11.309Z,13.80
2019-03-17T10:15:27.735Z,13.80
2019-03-17T10:16:34.909Z,13.70
2019-03-17T10:17:52.351Z,13.70
2019-03-17T10:19:16.560Z,13.70
2019-03-17T10:20:41.966Z,13.70
2019-03-17T10:21:48.159Z,13.70
2019-03-17T10:22:59.490Z,13.70
2019-03-17T10:24:05.020Z,13.70
2019-03-17T10:25:20.175Z,13.70
2019-03-17T10:26:30.833Z,13.80
2019-03-17T10:27:44.646Z,13.80
2019-03-17T10:28:57.998Z,13.80
2019-03-17T10:30:54.061Z,13.80
2019-03-17T10:31:27.708Z,13.80
2019-03-17T10:32:43.356Z,13.80
2019-03-17T10:33:55.445Z,13.90
2019-03-17T10:35:05.790Z,13.90
2019-03-17T10:36:08.050Z,14.00
2019-03-17T10:37:16.326Z,14.00
2019-03-17T10:38:35.669Z,14.10
2019-03-17T10:39:33.687Z,14.20
2019-03-17T10:40:40.954Z,14.30
2019-03-17T10:41:46.760Z,14.30
2019-03-17T10:42:53.865Z,14.30
2019-03-17T10:44:06.642Z,14.40
2019-03-17T10:45:21.607Z,14.40
2019-03-17T10:46:29.352Z,14.50
2019-03-17T10:49:03.810Z,14.60
2019-03-17T10:50:16.950Z,14.60
2019-03-17T10:51:21.370Z,14.60
2019-03-17T10:53:55.066Z,14.70
2019-03-17T10:55:02.308Z,14.70
2019-03-17T10:56:06.459Z,14.70
2019-03-17T10:57:13.660Z,14.70
2019-03-17T10:58:23.725Z,14.70
2019-03-17T10:59:32.589Z,14.70
2019-03-17T11:00:38.236Z,14.70
2019-03-17T11:01:42.489Z,14.70
2019-03-17T11:02:46.751Z,14.60
2019-03-17T11:03:52.388Z,14.60
2019-03-17T11:04:59.770Z,14.70
2019-03-17T11:06:09.208Z,14.70
2019-03-17T11:07:16.272Z,14.70
2019-03-17T11:08:24.873Z,14.70
2019-03-17T11:09:31.439Z,14.70
2019-03-17T11:10:38.267Z,14.80
2019-03-17T11:11:43.125Z,14.90
2019-03-17T11:12:49.684Z,14.80
2019-03-17T11:13:54.139Z,14.90
2019-03-17T11:15:00.381Z,14.80
2019-03-17T11:16:04.572Z,14.80
2019-03-17T11:17:17.847Z,14.80
2019-03-17T11:18:24.480Z,14.80
2019-03-17T11:19:34.079Z,14.70
2019-03-17T11:20:38.281Z,14.70
2019-03-17T11:21:43.978Z,14.70
2019-03-17T11:22:49.238Z,14.70
2019-03-17T11:23:54.555Z,14.60
2019-03-17T11:24:58.644Z,14.60
2019-03-17T11:26:05.817Z,14.60
2019-03-17T11:27:09.952Z,14.60
2019-03-17T11:28:15.828Z,14.60
2019-03-17T11:29:21.118Z,14.60
2019-03-17T11:30:25.257Z,14.60
2019-03-17T11:31:29.466Z,14.50
2019-03-17T11:32:37.009Z,14.60
2019-03-17T11:33:44.068Z,14.50
2019-03-17T11:34:49.604Z,14.60
2019-03-17T11:36:07.832Z,14.60
2019-03-17T11:37:23.628Z,14.60
2019-03-17T11:38:29.665Z,14.60
2019-03-17T11:39:53.108Z,14.60
2019-03-17T11:41:04.995Z,14.60
2019-03-17T11:42:25.274Z,14.70
2019-03-17T11:43:33.116Z,14.70
2019-03-17T11:44:40.244Z,14.80
2019-03-17T11:45:47.656Z,14.80
2019-03-17T11:46:59.626Z,14.90
2019-03-17T11:48:15.792Z,14.90
2019-03-17T11:49:32.278Z,14.90
2019-03-17T11:50:36.436Z,15.00
2019-03-17T11:51:42.467Z,15.00
2019-03-17T11:54:19.062Z,15.00
2019-03-17T11:54:25.276Z,15.00
2019-03-17T11:55:31.976Z,15.00
2019-03-17T11:56:41.249Z,15.00
2019-03-17T11:57:48.650Z,15.00
2019-03-17T11:58:58.674Z,15.00
2019-03-17T12:00:22.934Z,15.10
2019-03-17T12:01:28.438Z,15.10
2019-03-17T12:02:37.703Z,15.10
2019-03-17T12:03:47.771Z,15.10
2019-03-17T12:04:53.883Z,15.10
2019-03-17T12:06:19.750Z,15.20
2019-03-17T12:07:25.772Z,15.10
2019-03-17T12:08:37.323Z,15.10
2019-03-17T12:09:49.938Z,15.10
2019-03-17T12:10:51.843Z,15.10
2019-03-17T12:12:07.107Z,15.10
2019-03-17T12:13:11.634Z,15.10
2019-03-17T12:14:22.946Z,15.10
2019-03-17T12:15:42.096Z,15.10
2019-03-17T12:16:49.851Z,15.10
2019-03-17T12:17:58.026Z,15.10
2019-03-17T12:19:07.049Z,15.10
2019-03-17T12:20:23.208Z,15.10
2019-03-17T12:21:25.594Z,15.10
2019-03-17T12:22:47.796Z,15.10
2019-03-17T12:23:50.152Z,15.20
2019-03-17T12:25:00.409Z,15.20
2019-03-17T12:26:11.691Z,15.20
2019-03-17T12:27:33.800Z,15.10
2019-03-17T12:28:38.021Z,15.20
2019-03-17T12:29:49.639Z,15.20
2019-03-17T12:31:27.356Z,15.20
2019-03-17T12:32:15.691Z,15.20
2019-03-17T12:33:26.964Z,15.20
2019-03-17T12:34:41.814Z,15.20
2019-03-17T12:37:25.582Z,15.30
2019-03-17T12:38:29.403Z,15.20
2019-03-17T12:39:43.595Z,15.30
2019-03-17T12:40:50.256Z,15.30
2019-03-17T12:41:58.348Z,15.30
2019-03-17T12:42:59.495Z,15.30
2019-03-17T12:44:17.209Z,15.30
2019-03-17T12:45:26.324Z,15.30
2019-03-17T12:46:43.961Z,15.30
2019-03-17T12:47:49.500Z,15.30
2019-03-17T12:49:05.934Z,15.30
2019-03-17T12:50:08.233Z,15.40
2019-03-17T12:51:19.825Z,15.40
2019-03-17T12:52:30.296Z,15.40
2019-03-17T12:53:40.951Z,15.40
2019-03-17T12:54:49.969Z,15.40
2019-03-17T12:55:59.496Z,15.40
2019-03-17T12:57:07.384Z,15.40
2019-03-17T12:58:30.774Z,15.50
2019-03-17T12:59:40.008Z,15.50
2019-03-17T13:00:47.288Z,15.50
2019-03-17T13:01:59.566Z,15.40
2019-03-17T13:03:05.564Z,15.50
2019-03-17T13:04:17.883Z,15.50
2019-03-17T13:05:26.877Z,15.50
2019-03-17T13:06:33.160Z,15.50
2019-03-17T13:07:46.489Z,15.60
2019-03-17T13:09:04.537Z,15.60
2019-03-17T13:10:14.638Z,15.60
2019-03-17T13:11:18.364Z,15.60
2019-03-17T13:12:29.870Z,15.70
2019-03-17T13:13:52.832Z,15.70
2019-03-17T13:15:04.946Z,15.70
2019-03-17T13:16:19.066Z,15.70
2019-03-17T13:17:18.012Z,15.70
2019-03-17T13:19:16.241Z,15.80
2019-03-17T13:19:43.656Z,15.80
2019-03-17T13:20:56.333Z,15.80
2019-03-17T13:22:07.446Z,15.80
2019-03-17T13:23:18.123Z,15.80
2019-03-17T13:24:30.795Z,15.80
2019-03-17T13:26:47.792Z,15.90
2019-03-17T13:27:55.578Z,15.90
2019-03-17T13:29:11.501Z,15.90
2019-03-17T13:30:27.251Z,15.90
2019-03-17T13:31:41.820Z,15.90
2019-03-17T13:32:57.251Z,15.90
2019-03-17T13:34:15.414Z,15.90
2019-03-17T13:35:13.958Z,16.00
2019-03-17T13:36:40.897Z,16.00
2019-03-17T13:37:42.252Z,16.00
2019-03-17T13:38:50.282Z,16.00
2019-03-17T13:40:39.665Z,16.10
2019-03-17T13:41:46.635Z,16.10
2019-03-17T13:44:11.862Z,16.10
2019-03-17T13:45:23.230Z,16.20
2019-03-17T13:46:33.756Z,16.20
2019-03-17T13:47:44.887Z,16.30
2019-03-17T13:49:47.179Z,16.30
2019-03-17T13:50:18.085Z,16.30
2019-03-17T13:51:44.014Z,16.40
2019-03-17T13:52:40.315Z,16.40
2019-03-17T13:53:57.828Z,16.40
2019-03-17T13:55:48.024Z,16.50
2019-03-17T13:57:49.067Z,16.60
2019-03-17T13:59:17.460Z,16.60
2019-03-17T14:00:02.802Z,16.70
2019-03-17T14:01:11.707Z,16.70
2019-03-17T14:02:17.495Z,16.70
2019-03-17T14:04:00.818Z,16.80
2019-03-17T14:04:55.695Z,16.80
2019-03-17T14:05:47.473Z,16.80
2019-03-17T14:06:53.313Z,16.90
2019-03-17T14:08:05.855Z,16.90
2019-03-17T14:09:24.389Z,16.90
2019-03-17T14:10:22.778Z,16.90
2019-03-17T14:11:36.695Z,17.00
2019-03-17T14:12:41.675Z,17.00
2019-03-17T14:13:53.059Z,16.90
2019-03-17T14:15:00.477Z,17.00
2019-03-17T14:16:15.599Z,17.00
2019-03-17T14:17:21.535Z,17.00
2019-03-17T14:18:29.021Z,17.10
2019-03-17T14:19:36.000Z,17.10
2019-03-17T14:20:47.181Z,17.10
2019-03-17T14:21:52.911Z,17.10
2019-03-17T14:23:15.050Z,17.10
2019-03-17T14:24:21.447Z,17.20
2019-03-17T14:25:37.286Z,17.20
2019-03-17T14:26:42.187Z,17.20
2019-03-17T14:27:52.482Z,17.20
2019-03-17T14:29:07.401Z,17.20
2019-03-17T14:30:32.357Z,17.20
2019-03-17T14:31:27.576Z,17.20
2019-03-17T14:32:39.641Z,17.20
2019-03-17T14:33:47.106Z,17.20
2019-03-17T14:34:56.326Z,17.20
2019-03-17T14:36:24.563Z,17.20
2019-03-17T14:37:16.495Z,17.20
2019-03-17T14:38:29.905Z,17.20
2019-03-17T14:39:46.635Z,17.20
2019-03-17T14:40:57.222Z,17.20
2019-03-17T14:42:00.552Z,17.10
2019-03-17T14:43:04.836Z,17.10
2019-03-17T14:44:09.723Z,17.10
2019-03-17T14:45:16.171Z,17.10
2019-03-17T14:46:24.881Z,17.10
2019-03-17T14:47:43.387Z,17.10
2019-03-17T14:48:42.302Z,17.10
2019-03-17T14:49:55.821Z,17.10
2019-03-17T14:51:00.592Z,17.10
2019-03-17T14:52:11.311Z,17.10
2019-03-17T14:53:13.406Z,17.10
2019-03-17T14:54:19.821Z,17.10
2019-03-17T14:55:30.209Z,17.10
2019-03-17T14:56:44.247Z,17.10
2019-03-17T14:57:43.232Z,17.20
2019-03-17T14:58:50.901Z,17.20
2019-03-17T14:59:54.838Z,17.20
2019-03-17T15:01:00.674Z,17.20
2019-03-17T15:02:08.875Z,17.20
2019-03-17T15:03:12.937Z,17.20
2019-03-17T15:04:17.039Z,17.20
2019-03-17T15:05:25.659Z,17.20
2019-03-17T15:06:30.053Z,17.20
2019-03-17T15:07:35.825Z,17.20
2019-03-17T15:08:42.484Z,17.20
2019-03-17T15:09:46.695Z,17.20
2019-03-17T15:10:50.931Z,17.20
2019-03-17T15:11:56.382Z,17.10
2019-03-17T15:13:13.587Z,17.10
2019-03-17T15:14:08.276Z,17.10
2019-03-17T15:15:14.653Z,17.10
2019-03-17T15:16:20.224Z,17.10
2019-03-17T15:17:24.381Z,17.10
2019-03-17T15:18:28.587Z,17.00
2019-03-17T15:19:32.683Z,17.00
2019-03-17T15:20:36.989Z,17.10
2019-03-17T15:21:42.982Z,17.00
2019-03-17T15:22:51.328Z,17.00
2019-03-17T15:23:56.353Z,17.00
2019-03-17T15:25:04.031Z,17.00
2019-03-17T15:26:12.264Z,17.00
2019-03-17T15:27:17.395Z,17.00
2019-03-17T15:28:24.445Z,17.00
2019-03-17T15:29:28.642Z,17.00
2019-03-17T15:30:37.543Z,17.00
2019-03-17T15:31:41.676Z,17.00
2019-03-17T15:32:48.395Z,17.10
2019-03-17T15:33:52.555Z,17.20
2019-03-17T15:34:57.938Z,17.30
2019-03-17T15:36:03.763Z,17.40
2019-03-17T15:37:08.885Z,17.50
2019-03-17T15:38:13.147Z,17.60
2019-03-17T15:40:45.775Z,17.90
2019-03-17T15:41:51.443Z,18.00
2019-03-17T15:42:57.159Z,18.20
2019-03-17T15:44:02.897Z,18.30
2019-03-17T15:45:15.573Z,18.30
2019-03-17T15:46:19.653Z,18.30
2019-03-17T15:47:26.360Z,18.30
2019-03-17T15:48:37.092Z,18.30
2019-03-17T15:49:37.984Z,18.30
2019-03-17T15:50:42.306Z,18.30
2019-03-17T15:51:46.632Z,18.30
2019-03-17T15:52:56.315Z,18.20
2019-03-17T15:54:00.549Z,18.10
2019-03-17T15:55:11.169Z,18.10
2019-03-17T15:56:15.508Z,18.00
2019-03-17T15:57:22.169Z,17.90